Архив погоды в Акбулаке

Метеограмма Акбулак
Пятница, 26 Мая
Время местн. Темп Ветер Видим Явления Облачность нижн/средн/верх Атм. давл. Влжн Точка росы ВНГО R Сост. почвы Tg s
Напр Скр Прв ур.ст ур.м изм
05:00 +7.1° штиль 0 - 20 км - ясно 752 765 -0.2 86% +5° более 2.5 км - - - -
02:00 +9° С-В 1 - 20 км - переменная облачность 752 765 -0.4 79% +5.6° более 2.5 км - - - -
Четверг, 25 Мая
Время местн. Темп Ветер Видим Явления Облачность нижн/средн/верх Атм. давл. Влжн Точка росы ВНГО R Сост. почвы Tg s
Напр Скр Прв ур.ст ур.м изм
23:00 +13.6° С,С-В 1 - 20 км - облачно с прояснениями 752 765 +0.5 64% +6.9° более 2.5 км - - - -
20:00 +21.6° Ю-В 1 - 20 км - преимущественно облачно 752 765 -0.3 32% +4.3° - 0 - - -
17:00 +23.9° Ю 2 - 20 км - переменная облачность 752 765 -1.1 26% +3.5° более 2.5 км - - - -
14:00 +22.1° Ю 2 - 20 км - переменная облачность 753 766 -0.6 28% +3° более 2.5 км - - - -
11:00 +19.6° Ю,Ю-З 2 - 20 км - ясно 754 767 +0.2 34% +3.2° более 2.5 км - - - -
08:00 +10.6° Ю 1 - 20 км - ясно 754 767 +0.3 63% +3.9° более 2.5 км 0 Сухая (без трещин) +6° -
05:00 +3.4° штиль 0 - 20 км - ясно 753 767 +0.3 83% +0.8° более 2.5 км - - - -
02:00 +5.1° С,С-В 1 - 20 км - ясно 753 767 +0.7 79% +1.8° более 2.5 км - - - -
Среда, 24 Мая
Время местн. Темп Ветер Видим Явления Облачность нижн/средн/верх Атм. давл. Влжн Точка росы ВНГО R Сост. почвы Tg s
Напр Скр Прв ур.ст ур.м изм
23:00 +9.7° штиль 0 - 20 км - ясно 752 766 +0.8 59% +2.1° более 2.5 км - - - -
20:00 +17.1° С-З 2 - 20 км - ясно 752 765 +0.2 32% +0.2° более 2.5 км 0 - - -
17:00 +18.1° З,С-З 3 - 20 км - ясно 751 764 -0.2 29% -0.3° более 2.5 км - - - -
14:00 +16.5° С 2 - 20 км - незначительная облачность 752 765 +0.1 33% +0.1° 1 км - - - -
11:00 +13.7° С 3 - 20 км - ясно 752 765 +0.7 35% -1.5° более 2.5 км - - - -
08:00 +7.7° З 1 - 20 км - ясно 751 764 +1.8 76% +3.8° более 2.5 км 0 Сухая (без трещин) - -
05:00 +3.2° З,С-З 1 - 20 км - ясно 749 763 +1.4 91% +1.9° более 2.5 км - - - -
02:00 +5.1° С-З 1 - 20 км - ясно 748 761 +1.5 81% +2.1° более 2.5 км - - - -
Вторник, 23 Мая
Время местн. Темп Ветер Видим Явления Облачность нижн/средн/верх Атм. давл. Влжн Точка росы ВНГО R Сост. почвы Tg s
Напр Скр Прв ур.ст ур.м изм
23:00 +8.9° З,С-З 2 - 20 км - ясно 746 759 +1.6 75% +4.8° более 2.5 км - - - -
20:00 +14.4° З,С-З 3 10 20 км - преимущественно облачно 745 758 +1.1 45% +2.6° 1 км 0 - - -
17:00 +16.4° З,С-З 4 - 20 км - облачно с прояснениями 744 756 +1 38% +2.1° 1 км - - - -
14:00 +15.2° З,С-З 5 - 20 км - облачно с прояснениями 743 755 +1.4 49% +4.7° 1 км - - - -
11:00 +11.3° З,С-З 4 - 20 км - облачно 741 754 +1.6 74% +6.8° 1 км - - - -
08:00 +10.1° З 3 - 20 км - облачно 740 753 +1.2 88% +8.2° 1 км 0.8 Влажная (без луж) - -
05:00 +8.9° С-З 3 - 20 км небо без изменений {ливневые осадки} облачно 738 751 +1.2 92% +7.7° 1 км - - - -
02:00 +11.5° С,С-З 3 - 20 км небо без изменений {ливневые осадки} облачно 737 750 +0.3 93% +10.4° 1 км - - - -